createdAt,value
2023-01-12T00:00:50.099Z,9.58
2023-01-12T00:02:53.433Z,9.61
2023-01-12T00:04:58.091Z,9.65
2023-01-12T00:07:02.704Z,9.46
2023-01-12T00:09:07.346Z,9.62
2023-01-12T00:11:10.623Z,9.72
2023-01-12T00:13:13.925Z,9.77
2023-01-12T00:15:17.442Z,9.76
2023-01-12T00:17:20.872Z,9.78
2023-01-12T00:19:24.359Z,9.76
2023-01-12T00:21:29.194Z,9.76
2023-01-12T00:23:33.472Z,9.77
2023-01-12T00:25:36.858Z,9.79
2023-01-12T00:27:40.232Z,9.77
2023-01-12T00:29:43.806Z,9.75
2023-01-12T00:31:47.343Z,9.72
2023-01-12T00:33:50.644Z,9.72
2023-01-12T00:35:53.996Z,9.69
2023-01-12T00:37:58.745Z,9.67
2023-01-12T00:40:03.210Z,9.65
2023-01-12T00:42:24.812Z,9.69
2023-01-12T00:44:46.366Z,9.70
2023-01-12T00:46:49.775Z,9.70
2023-01-12T00:48:53.136Z,9.66
2023-01-12T00:50:56.495Z,9.66
2023-01-12T00:53:01.190Z,9.66
2023-01-12T00:55:04.929Z,9.69
2023-01-12T00:57:09.616Z,9.57
2023-01-12T00:59:13.155Z,9.65
2023-01-12T01:01:16.576Z,9.65
2023-01-12T01:03:20.049Z,9.62
2023-01-12T01:05:23.412Z,9.60
2023-01-12T01:07:26.782Z,9.47
2023-01-12T01:09:32.123Z,9.58
2023-01-12T01:11:36.038Z,9.58
2023-01-12T01:13:41.398Z,9.35
2023-01-12T01:15:44.774Z,9.57
2023-01-12T01:17:48.223Z,9.53
2023-01-12T01:19:51.549Z,9.54
2023-01-12T01:21:54.853Z,9.56
2023-01-12T01:23:58.127Z,9.58
2023-01-12T01:26:05.614Z,9.62
2023-01-12T01:28:08.979Z,9.63
2023-01-12T01:30:12.893Z,9.63
2023-01-12T01:32:16.312Z,9.63
2023-01-12T01:34:19.588Z,9.61
2023-01-12T01:36:23.041Z,9.58
2023-01-12T01:38:26.845Z,9.57
2023-01-12T01:40:30.228Z,9.60
2023-01-12T01:42:35.079Z,9.62
2023-01-12T01:44:53.596Z,9.64
2023-01-12T01:47:01.370Z,9.60
2023-01-12T01:49:29.043Z,9.62
2023-01-12T01:51:32.396Z,9.58
2023-01-12T01:53:38.955Z,9.61
2023-01-12T01:55:49.541Z,9.62
2023-01-12T01:57:59.854Z,9.59
2023-01-12T02:00:07.019Z,9.59
2023-01-12T02:02:12.232Z,9.64
2023-01-12T02:04:16.429Z,9.64
2023-01-12T02:06:20.912Z,9.66
2023-01-12T02:08:30.211Z,9.62
2023-01-12T02:10:33.777Z,9.66
2023-01-12T02:12:54.763Z,9.66
2023-01-12T02:15:17.378Z,9.69
2023-01-12T02:17:48.144Z,9.74
2023-01-12T02:20:26.343Z,9.73
2023-01-12T02:23:03.753Z,9.72
2023-01-12T02:25:55.873Z,9.83
2023-01-12T02:28:35.245Z,9.84
2023-01-12T02:31:04.454Z,9.86
2023-01-12T02:33:19.273Z,9.88
2023-01-12T02:35:29.364Z,9.91
2023-01-12T02:37:38.223Z,9.89
2023-01-12T02:39:46.748Z,9.92
2023-01-12T02:42:12.497Z,9.92
2023-01-12T02:44:27.348Z,9.92
2023-01-12T02:46:33.681Z,9.97
2023-01-12T02:48:41.617Z,9.98
2023-01-12T02:50:52.778Z,9.95
2023-01-12T02:53:02.587Z,9.94
2023-01-12T02:55:07.825Z,9.96
2023-01-12T02:57:11.838Z,9.97
2023-01-12T02:59:19.782Z,9.96
2023-01-12T03:01:26.623Z,9.98
2023-01-12T03:03:32.348Z,9.99
2023-01-12T03:05:35.673Z,9.97
2023-01-12T03:07:45.190Z,9.97
2023-01-12T03:09:52.198Z,10.00
2023-01-12T03:12:02.638Z,10.00
2023-01-12T03:14:07.739Z,9.89
2023-01-12T03:16:14.456Z,9.84
2023-01-12T03:18:22.171Z,9.79
2023-01-12T03:20:29.945Z,9.69
2023-01-12T03:22:36.498Z,9.63
2023-01-12T03:24:43.069Z,9.54
2023-01-12T03:26:50.563Z,9.40
2023-01-12T03:29:00.210Z,9.54
2023-01-12T03:31:08.915Z,9.45
2023-01-12T03:33:13.702Z,9.36
2023-01-12T03:35:17.633Z,9.38
2023-01-12T03:37:29.037Z,9.35
2023-01-12T03:39:41.662Z,9.40
2023-01-12T03:41:54.258Z,9.41
2023-01-12T03:44:02.970Z,9.34
2023-01-12T03:46:15.081Z,9.30
2023-01-12T03:48:26.331Z,9.31
2023-01-12T03:50:35.113Z,9.29
2023-01-12T03:52:42.068Z,9.25
2023-01-12T03:54:48.531Z,9.22
2023-01-12T03:56:54.576Z,9.14
2023-01-12T03:58:58.288Z,9.06
2023-01-12T04:01:02.067Z,9.05
2023-01-12T04:03:10.132Z,9.07
2023-01-12T04:05:14.986Z,9.10
2023-01-12T04:07:18.481Z,9.00
2023-01-12T04:09:25.325Z,8.99
2023-01-12T04:11:46.425Z,9.01
2023-01-12T04:13:49.891Z,9.02
2023-01-12T04:15:53.164Z,9.08
2023-01-12T04:17:56.601Z,9.04
2023-01-12T04:19:59.962Z,9.03
2023-01-12T04:22:20.598Z,9.06
2023-01-12T04:24:25.267Z,9.04
2023-01-12T04:26:28.560Z,9.07
2023-01-12T04:28:31.938Z,9.03
2023-01-12T04:30:35.515Z,9.06
2023-01-12T04:32:39.083Z,9.08
2023-01-12T04:34:42.405Z,9.06
2023-01-12T04:36:45.859Z,9.08
2023-01-12T04:38:49.235Z,9.08
2023-01-12T04:40:56.235Z,9.10
2023-01-12T04:43:01.618Z,9.10
2023-01-12T04:45:05.788Z,8.95
2023-01-12T04:47:09.513Z,9.10
2023-01-12T04:49:13.013Z,9.08
2023-01-12T04:51:16.332Z,9.05
2023-01-12T04:53:21.908Z,9.04
2023-01-12T04:55:25.526Z,9.02
2023-01-12T04:57:30.411Z,8.98
2023-01-12T04:59:33.703Z,8.87
2023-01-12T05:01:38.955Z,8.90
2023-01-12T05:03:42.995Z,8.75
2023-01-12T05:05:46.324Z,8.89
2023-01-12T05:08:03.546Z,8.91
2023-01-12T05:10:25.992Z,8.87
2023-01-12T05:12:30.627Z,8.79
2023-01-12T05:14:34.160Z,8.81
2023-01-12T05:16:37.815Z,8.79
2023-01-12T05:18:41.149Z,8.77
2023-01-12T05:20:44.474Z,8.77
2023-01-12T05:22:48.415Z,8.69
2023-01-12T05:24:51.695Z,8.39
2023-01-12T05:26:55.070Z,8.70
2023-01-12T05:28:59.672Z,8.67
2023-01-12T05:31:05.513Z,8.66
2023-01-12T05:33:15.703Z,8.64
2023-01-12T05:35:19.053Z,8.66
2023-01-12T05:37:22.445Z,8.64
2023-01-12T05:39:25.771Z,8.61
2023-01-12T05:41:29.104Z,8.67
2023-01-12T05:43:49.857Z,8.58
2023-01-12T05:45:54.615Z,8.54
2023-01-12T05:47:58.885Z,8.50
2023-01-12T05:50:02.265Z,8.53
2023-01-12T05:52:05.852Z,8.46
2023-01-12T05:54:09.459Z,8.52
2023-01-12T05:56:18.118Z,8.51
2023-01-12T05:58:21.817Z,8.25
2023-01-12T06:00:25.414Z,8.52
2023-01-12T06:02:30.358Z,8.52
2023-01-12T06:04:33.882Z,8.54
2023-01-12T06:06:37.200Z,8.46
2023-01-12T06:08:40.563Z,8.49
2023-01-12T06:10:43.949Z,8.52
2023-01-12T06:13:08.668Z,8.59
2023-01-12T06:15:12.244Z,8.58
2023-01-12T06:17:15.699Z,8.52
2023-01-12T06:19:20.398Z,8.48
2023-01-12T06:21:24.576Z,8.49
2023-01-12T06:23:35.206Z,8.50
2023-01-12T06:25:39.232Z,8.44
2023-01-12T06:27:42.572Z,8.41
2023-01-12T06:29:45.897Z,8.38
2023-01-12T06:31:49.313Z,8.43
2023-01-12T06:33:52.563Z,8.10
2023-01-12T06:35:57.489Z,8.43
2023-01-12T06:38:02.419Z,8.36
2023-01-12T06:40:06.662Z,8.37
2023-01-12T06:42:28.455Z,8.35
2023-01-12T06:44:31.932Z,8.33
2023-01-12T06:46:35.382Z,8.40
2023-01-12T06:48:39.580Z,8.44
2023-01-12T06:50:43.030Z,8.27
2023-01-12T06:52:47.809Z,8.36
2023-01-12T06:54:51.519Z,8.35
2023-01-12T06:56:55.680Z,8.35
2023-01-12T06:58:59.002Z,8.36
2023-01-12T07:01:02.480Z,8.36
2023-01-12T07:03:05.888Z,8.40
2023-01-12T07:05:09.990Z,8.42
2023-01-12T07:07:13.352Z,8.41
2023-01-12T07:09:18.043Z,8.42
2023-01-12T07:11:21.378Z,8.44
2023-01-12T07:13:24.733Z,8.46
2023-01-12T07:15:29.063Z,8.46
2023-01-12T07:17:32.501Z,8.54
2023-01-12T07:19:35.815Z,8.50
2023-01-12T07:21:39.180Z,8.46
2023-01-12T07:23:43.646Z,8.50
2023-01-12T07:25:48.446Z,8.50
2023-01-12T07:27:52.740Z,8.49
2023-01-12T07:29:56.234Z,8.53
2023-01-12T07:31:59.554Z,8.66
2023-01-12T07:34:02.875Z,8.75
2023-01-12T07:36:06.845Z,8.66
2023-01-12T07:38:11.100Z,8.73
2023-01-12T07:40:14.693Z,8.64
2023-01-12T07:42:25.223Z,8.78
2023-01-12T07:44:28.689Z,8.88
2023-01-12T07:46:32.091Z,8.95
2023-01-12T07:48:35.823Z,9.06
2023-01-12T07:50:39.247Z,8.78
2023-01-12T07:52:42.738Z,9.16
2023-01-12T07:54:46.120Z,9.22
2023-01-12T07:56:49.651Z,9.26
2023-01-12T07:58:54.461Z,9.27
2023-01-12T08:00:59.611Z,9.14
2023-01-12T08:03:07.712Z,9.35
2023-01-12T08:05:11.053Z,9.35
2023-01-12T08:07:15.318Z,9.37
2023-01-12T08:09:18.801Z,9.39
2023-01-12T08:11:22.900Z,9.40
2023-01-12T08:13:26.225Z,9.32
2023-01-12T08:15:35.346Z,9.45
2023-01-12T08:17:43.322Z,9.44
2023-01-12T08:19:51.683Z,9.49
2023-01-12T08:22:00.420Z,9.49
2023-01-12T08:24:06.599Z,9.47
2023-01-12T08:26:16.418Z,9.52
2023-01-12T08:28:26.004Z,9.53
2023-01-12T08:30:31.174Z,9.50
2023-01-12T08:32:35.550Z,9.62
2023-01-12T08:34:41.000Z,9.57
2023-01-12T08:36:44.801Z,9.56
2023-01-12T08:38:48.359Z,9.62
2023-01-12T08:41:09.407Z,9.65
2023-01-12T08:43:12.979Z,9.66
2023-01-12T08:45:16.617Z,9.71
2023-01-12T08:47:23.216Z,9.75
2023-01-12T08:49:28.687Z,9.76
2023-01-12T08:51:32.651Z,9.75
2023-01-12T08:53:36.462Z,9.76
2023-01-12T08:55:39.852Z,9.77
2023-01-12T08:57:43.220Z,9.78
2023-01-12T08:59:46.580Z,9.79
2023-01-12T09:01:50.168Z,9.85
2023-01-12T09:03:56.588Z,9.64
2023-01-12T09:06:00.212Z,9.82
2023-01-12T09:08:03.558Z,9.81
2023-01-12T09:10:08.599Z,9.81
2023-01-12T09:12:12.005Z,9.81
2023-01-12T09:14:16.134Z,9.84
2023-01-12T09:16:21.201Z,9.70
2023-01-12T09:18:24.636Z,9.86
2023-01-12T09:20:29.531Z,9.92
2023-01-12T09:22:32.973Z,9.93
2023-01-12T09:24:36.406Z,9.93
2023-01-12T09:26:41.283Z,9.62
2023-01-12T09:28:45.040Z,9.89
2023-01-12T09:30:48.444Z,9.92
2023-01-12T09:32:51.748Z,9.92
2023-01-12T09:34:55.282Z,9.91
2023-01-12T09:37:01.671Z,9.94
2023-01-12T09:39:06.069Z,9.79
2023-01-12T09:41:16.059Z,9.99
2023-01-12T09:43:48.661Z,10.01
2023-01-12T09:46:09.589Z,10.03
2023-01-12T09:48:14.290Z,10.05
2023-01-12T09:50:23.230Z,10.09
2023-01-12T09:52:32.017Z,10.09
2023-01-12T09:54:35.976Z,10.00
2023-01-12T09:56:51.751Z,10.10
2023-01-12T09:59:04.033Z,10.12
2023-01-12T10:01:17.559Z,10.10
2023-01-12T10:03:35.801Z,10.09
2023-01-12T10:05:43.034Z,10.13
2023-01-12T10:07:49.063Z,10.11
2023-01-12T10:09:52.528Z,10.14
2023-01-12T10:12:04.371Z,10.15
2023-01-12T10:14:28.756Z,10.14
2023-01-12T10:16:41.676Z,10.16
2023-01-12T10:18:49.703Z,10.22
2023-01-12T10:20:54.038Z,10.23
2023-01-12T10:23:10.337Z,10.27
2023-01-12T10:25:34.876Z,10.29
2023-01-12T10:27:43.539Z,10.30
2023-01-12T10:29:49.217Z,10.28
2023-01-12T10:31:52.683Z,10.30
2023-01-12T10:34:04.857Z,10.30
2023-01-12T10:36:11.054Z,10.32
2023-01-12T10:38:23.856Z,10.33
2023-01-12T10:40:30.673Z,10.33
2023-01-12T10:42:51.753Z,10.34
2023-01-12T10:45:12.743Z,10.37
2023-01-12T10:47:19.228Z,10.36
2023-01-12T10:49:24.515Z,10.36
2023-01-12T10:51:30.263Z,10.39
2023-01-12T10:53:43.072Z,10.46
2023-01-12T10:55:47.470Z,10.49
2023-01-12T10:57:54.139Z,10.56
2023-01-12T11:00:02.658Z,10.53
2023-01-12T11:02:15.361Z,10.57
2023-01-12T11:04:22.231Z,10.58
2023-01-12T11:06:32.886Z,10.60
2023-01-12T11:08:37.657Z,10.61
2023-01-12T11:10:41.685Z,10.63
2023-01-12T11:12:56.056Z,10.66
2023-01-12T11:15:02.592Z,10.69
2023-01-12T11:17:22.432Z,10.62
2023-01-12T11:19:30.892Z,10.61
2023-01-12T11:21:39.301Z,10.76
2023-01-12T11:23:57.212Z,10.76
2023-01-12T11:26:03.783Z,10.74
2023-01-12T11:28:14.526Z,10.75
2023-01-12T11:30:25.145Z,10.72
2023-01-12T11:32:36.804Z,10.79
2023-01-12T11:34:54.448Z,10.78
2023-01-12T11:37:07.649Z,10.80
2023-01-12T11:39:15.940Z,10.81
2023-01-12T11:41:23.633Z,10.84
2023-01-12T11:43:50.973Z,10.86
2023-01-12T11:46:00.774Z,10.93
2023-01-12T11:48:18.951Z,10.91
2023-01-12T11:50:27.007Z,10.95
2023-01-12T11:52:31.147Z,10.92
2023-01-12T11:54:39.429Z,10.86
2023-01-12T11:57:04.335Z,10.91
2023-01-12T11:59:15.665Z,10.95
2023-01-12T12:01:25.580Z,10.96
2023-01-12T12:03:54.447Z,10.98
2023-01-12T12:06:06.043Z,10.97
2023-01-12T12:08:22.606Z,10.98
2023-01-12T12:10:35.826Z,10.89
2023-01-12T12:12:47.204Z,10.97
2023-01-12T12:15:10.341Z,10.99
2023-01-12T12:17:20.596Z,10.98
2023-01-12T12:19:32.895Z,11.00
2023-01-12T12:21:48.442Z,11.00
2023-01-12T12:24:03.702Z,10.99
2023-01-12T12:26:18.786Z,11.00
2023-01-12T12:28:39.025Z,11.05
2023-01-12T12:30:59.191Z,11.00
2023-01-12T12:33:21.766Z,11.00
2023-01-12T12:35:41.581Z,10.98
2023-01-12T12:37:57.217Z,10.96
2023-01-12T12:40:12.150Z,11.00
2023-01-12T12:42:47.343Z,10.98
2023-01-12T12:45:16.203Z,10.95
2023-01-12T12:47:42.353Z,10.84
2023-01-12T12:49:45.790Z,10.93
2023-01-12T12:51:50.828Z,10.90
2023-01-12T12:53:55.252Z,10.87
2023-01-12T12:56:02.259Z,10.90
2023-01-12T12:58:28.065Z,10.88
2023-01-12T13:00:40.447Z,10.81
2023-01-12T13:02:55.692Z,10.81
2023-01-12T13:05:05.335Z,10.81
2023-01-12T13:07:14.281Z,10.79
2023-01-12T13:09:41.063Z,10.49
2023-01-12T13:11:50.381Z,10.79
2023-01-12T13:14:04.158Z,10.68
2023-01-12T13:16:46.573Z,10.67
2023-01-12T13:19:06.774Z,10.74
2023-01-12T13:21:29.535Z,10.41
2023-01-12T13:24:11.623Z,10.68
2023-01-12T13:26:38.817Z,10.70
2023-01-12T13:28:42.271Z,10.70
2023-01-12T13:30:53.269Z,10.68
2023-01-12T13:33:01.173Z,10.66
2023-01-12T13:35:23.203Z,10.64
2023-01-12T13:37:37.657Z,10.67
2023-01-12T13:39:50.282Z,10.73
2023-01-12T13:42:16.684Z,10.73
2023-01-12T13:44:27.491Z,10.76
2023-01-12T13:46:36.869Z,10.76
2023-01-12T13:48:44.764Z,10.83
2023-01-12T13:50:51.429Z,10.80
2023-01-12T13:52:59.031Z,10.83
2023-01-12T13:55:03.128Z,10.83
2023-01-12T13:57:18.208Z,10.86
2023-01-12T13:59:21.554Z,10.92
2023-01-12T14:01:29.619Z,10.94
2023-01-12T14:03:51.058Z,10.93
2023-01-12T14:06:02.556Z,10.94
2023-01-12T14:08:36.856Z,10.95
2023-01-12T14:10:58.669Z,10.94
2023-01-12T14:13:22.834Z,10.95
2023-01-12T14:15:52.066Z,10.90
2023-01-12T14:18:03.962Z,10.95
2023-01-12T14:20:16.911Z,10.91
2023-01-12T14:22:21.744Z,10.99
2023-01-12T14:24:25.483Z,10.88
2023-01-12T14:26:30.272Z,10.99
2023-01-12T14:28:34.212Z,10.87
2023-01-12T14:30:47.094Z,11.02
2023-01-12T14:32:51.472Z,11.03
2023-01-12T14:34:54.889Z,11.00
2023-01-12T14:37:00.408Z,10.98
2023-01-12T14:39:09.808Z,10.89
2023-01-12T14:41:33.246Z,10.80
2023-01-12T14:43:55.065Z,10.93
2023-01-12T14:46:18.871Z,10.91
2023-01-12T14:48:27.820Z,10.90
2023-01-12T14:50:31.159Z,10.88
2023-01-12T14:52:35.951Z,10.84
2023-01-12T14:54:39.301Z,10.82
2023-01-12T14:56:44.901Z,10.83
2023-01-12T14:58:49.335Z,10.85
2023-01-12T15:00:52.859Z,10.84
2023-01-12T15:02:57.967Z,10.81
2023-01-12T15:05:03.891Z,10.81
2023-01-12T15:07:10.975Z,10.83
2023-01-12T15:09:30.260Z,10.78
2023-01-12T15:11:36.013Z,10.78
2023-01-12T15:13:39.435Z,10.74
2023-01-12T15:16:00.687Z,10.70
2023-01-12T15:18:21.945Z,10.73
2023-01-12T15:20:44.120Z,10.73
2023-01-12T15:23:05.095Z,10.76
2023-01-12T15:25:32.476Z,10.79
2023-01-12T15:27:35.872Z,10.79
2023-01-12T15:29:39.594Z,10.73
2023-01-12T15:31:43.047Z,10.75
2023-01-12T15:33:46.569Z,10.73
2023-01-12T15:35:50.130Z,10.77
2023-01-12T15:37:55.684Z,10.77
2023-01-12T15:40:01.021Z,10.77
2023-01-12T15:42:17.206Z,10.74
2023-01-12T15:44:22.497Z,10.73
2023-01-12T15:46:26.361Z,10.77
2023-01-12T15:48:30.077Z,10.76
2023-01-12T15:50:34.795Z,10.79
2023-01-12T15:52:38.269Z,10.81
2023-01-12T15:54:42.067Z,10.83
2023-01-12T15:56:45.795Z,10.78
2023-01-12T15:58:53.447Z,10.82
2023-01-12T16:00:56.865Z,10.81
2023-01-12T16:03:00.340Z,10.84
2023-01-12T16:05:03.959Z,10.89
2023-01-12T16:07:07.475Z,10.91
2023-01-12T16:09:10.873Z,10.92
2023-01-12T16:11:24.197Z,10.96
2023-01-12T16:13:27.615Z,10.96
2023-01-12T16:15:32.311Z,11.05
2023-01-12T16:17:36.159Z,11.07
2023-01-12T16:19:42.447Z,11.05
2023-01-12T16:21:45.816Z,11.20
2023-01-12T16:23:49.893Z,11.22
2023-01-12T16:25:56.562Z,11.20
2023-01-12T16:28:00.580Z,11.18
2023-01-12T16:30:04.173Z,11.21
2023-01-12T16:32:09.027Z,11.13
2023-01-12T16:34:12.445Z,11.23
2023-01-12T16:36:16.517Z,11.26
2023-01-12T16:38:19.839Z,11.04
2023-01-12T16:40:23.245Z,11.34
2023-01-12T16:42:28.536Z,11.35
2023-01-12T16:44:33.022Z,11.36
2023-01-12T16:46:36.799Z,11.25
2023-01-12T16:48:42.212Z,11.34
2023-01-12T16:50:46.008Z,11.21
2023-01-12T16:52:49.373Z,11.33
2023-01-12T16:54:52.711Z,11.33
2023-01-12T16:56:56.125Z,11.33
2023-01-12T16:58:59.536Z,11.33
2023-01-12T17:01:11.511Z,11.33
2023-01-12T17:03:15.233Z,11.37
2023-01-12T17:05:20.334Z,11.40
2023-01-12T17:07:23.892Z,11.40
2023-01-12T17:09:27.372Z,11.40
2023-01-12T17:11:30.916Z,11.09
2023-01-12T17:13:34.608Z,11.35
2023-01-12T17:15:38.005Z,11.42
2023-01-12T17:17:41.716Z,11.42
2023-01-12T17:19:45.451Z,11.45
2023-01-12T17:21:51.485Z,11.46
2023-01-12T17:23:55.224Z,11.47
2023-01-12T17:26:03.425Z,11.49
2023-01-12T17:28:06.955Z,11.50
2023-01-12T17:30:11.604Z,11.54
2023-01-12T17:32:15.952Z,11.55
2023-01-12T17:34:19.510Z,11.57
2023-01-12T17:36:22.948Z,11.56
2023-01-12T17:38:27.679Z,11.58
2023-01-12T17:40:31.621Z,11.58
2023-01-12T17:42:52.494Z,11.59
2023-01-12T17:44:56.073Z,11.59
2023-01-12T17:46:59.459Z,11.61
2023-01-12T17:49:04.984Z,11.61
2023-01-12T17:51:11.758Z,11.62
2023-01-12T17:53:17.282Z,11.61
2023-01-12T17:55:22.048Z,11.57
2023-01-12T17:57:26.177Z,11.54
2023-01-12T17:59:29.689Z,11.49
2023-01-12T18:01:35.085Z,11.37
2023-01-12T18:03:38.575Z,11.30
2023-01-12T18:05:44.527Z,11.25
2023-01-12T18:07:48.317Z,11.21
2023-01-12T18:09:51.686Z,11.18
2023-01-12T18:11:56.386Z,11.14
2023-01-12T18:14:01.123Z,11.11
2023-01-12T18:16:05.076Z,11.03
2023-01-12T18:18:08.472Z,11.07
2023-01-12T18:20:12.198Z,10.72
2023-01-12T18:22:15.630Z,10.91
2023-01-12T18:24:18.980Z,10.91
2023-01-12T18:26:25.186Z,10.87
2023-01-12T18:28:29.916Z,10.86
2023-01-12T18:30:33.222Z,10.82
2023-01-12T18:32:36.580Z,10.77
2023-01-12T18:34:40.491Z,10.74
2023-01-12T18:36:43.990Z,10.65
2023-01-12T18:38:49.271Z,10.57
2023-01-12T18:41:06.664Z,10.68
2023-01-12T18:43:10.079Z,10.62
2023-01-12T18:45:15.078Z,10.62
2023-01-12T18:47:37.722Z,10.61
2023-01-12T18:49:41.157Z,10.60
2023-01-12T18:52:02.080Z,10.66
2023-01-12T18:54:05.738Z,10.69
2023-01-12T18:56:09.151Z,10.66
2023-01-12T18:58:12.604Z,10.66
2023-01-12T19:00:18.324Z,10.63
2023-01-12T19:02:22.252Z,10.54
2023-01-12T19:04:37.587Z,10.70
2023-01-12T19:06:44.230Z,10.76
2023-01-12T19:09:05.183Z,10.73
2023-01-12T19:11:10.319Z,10.82
2023-01-12T19:13:27.631Z,10.89
2023-01-12T19:15:50.090Z,11.02
2023-01-12T19:17:53.512Z,11.06
2023-01-12T19:19:58.135Z,11.05
2023-01-12T19:22:19.324Z,11.09
2023-01-12T19:24:40.128Z,11.04
2023-01-12T19:27:01.355Z,11.03
2023-01-12T19:29:04.667Z,11.00
2023-01-12T19:31:11.626Z,11.03
2023-01-12T19:33:15.663Z,11.03
2023-01-12T19:35:19.284Z,11.00
2023-01-12T19:37:22.721Z,11.01
2023-01-12T19:39:46.322Z,10.97
2023-01-12T19:42:07.951Z,10.93
2023-01-12T19:44:11.334Z,10.94
2023-01-12T19:46:16.104Z,10.98
2023-01-12T19:48:21.755Z,10.92
2023-01-12T19:50:25.129Z,10.95
2023-01-12T19:52:29.388Z,10.91
2023-01-12T19:54:32.816Z,10.94
2023-01-12T19:56:36.227Z,10.94
2023-01-12T19:58:40.152Z,10.92
2023-01-12T20:00:46.275Z,10.80
2023-01-12T20:02:51.286Z,10.79
2023-01-12T20:04:55.217Z,10.86
2023-01-12T20:06:59.598Z,10.88
2023-01-12T20:09:02.978Z,10.79
2023-01-12T20:11:06.671Z,10.82
2023-01-12T20:13:13.120Z,10.83
2023-01-12T20:15:18.059Z,10.86
2023-01-12T20:17:21.511Z,10.87
2023-01-12T20:19:26.245Z,10.90
2023-01-12T20:21:29.810Z,10.93
2023-01-12T20:23:33.319Z,10.96
2023-01-12T20:25:36.765Z,11.01
2023-01-12T20:27:40.307Z,11.03
2023-01-12T20:29:43.977Z,11.04
2023-01-12T20:31:47.520Z,11.03
2023-01-12T20:33:50.887Z,11.11
2023-01-12T20:35:55.657Z,11.15
2023-01-12T20:37:59.120Z,11.15
2023-01-12T20:40:02.574Z,11.19
2023-01-12T20:42:06.016Z,11.18
2023-01-12T20:44:12.460Z,11.22
2023-01-12T20:46:16.048Z,11.24
2023-01-12T20:48:19.594Z,11.21
2023-01-12T20:50:25.361Z,11.24
2023-01-12T20:52:30.257Z,11.20
2023-01-12T20:54:33.661Z,11.18
2023-01-12T20:56:37.077Z,11.23
2023-01-12T20:58:40.495Z,11.25
2023-01-12T21:00:44.522Z,11.28
2023-01-12T21:02:48.139Z,11.16
2023-01-12T21:04:51.952Z,11.22
2023-01-12T21:06:55.271Z,11.24
2023-01-12T21:09:00.012Z,11.25
2023-01-12T21:11:03.344Z,11.29
2023-01-12T21:13:07.564Z,11.20
2023-01-12T21:15:13.466Z,11.33
2023-01-12T21:17:18.324Z,11.31
2023-01-12T21:19:21.667Z,11.30
2023-01-12T21:21:25.125Z,11.28
2023-01-12T21:23:28.760Z,11.17
2023-01-12T21:25:33.650Z,11.28
2023-01-12T21:27:37.159Z,11.29
2023-01-12T21:29:40.521Z,11.27
2023-01-12T21:31:43.919Z,11.24
2023-01-12T21:33:47.296Z,11.26
2023-01-12T21:35:56.247Z,11.32
2023-01-12T21:37:59.848Z,11.16
2023-01-12T21:40:03.168Z,11.27
2023-01-12T21:42:25.587Z,11.25
2023-01-12T21:44:29.005Z,11.27
2023-01-12T21:46:33.716Z,11.28
2023-01-12T21:48:37.839Z,11.26
2023-01-12T21:50:41.546Z,11.24
2023-01-12T21:52:44.951Z,11.23
2023-01-12T21:54:48.517Z,11.24
2023-01-12T21:56:51.887Z,11.18
2023-01-12T21:58:56.622Z,11.12
2023-01-12T22:01:01.255Z,11.18
2023-01-12T22:03:05.208Z,11.15
2023-01-12T22:05:09.476Z,11.14
2023-01-12T22:07:12.967Z,11.10
2023-01-12T22:09:16.411Z,11.10
2023-01-12T22:11:19.852Z,11.10
2023-01-12T22:13:23.159Z,11.10
2023-01-12T22:15:29.522Z,11.10
2023-01-12T22:17:32.894Z,11.08
2023-01-12T22:19:38.676Z,11.31
2023-01-12T22:21:42.767Z,11.34
2023-01-12T22:23:46.434Z,11.25
2023-01-12T22:25:50.467Z,11.12
2023-01-12T22:27:55.103Z,11.10
2023-01-12T22:30:00.482Z,10.82
2023-01-12T22:32:05.546Z,11.05
2023-01-12T22:34:09.100Z,11.04
2023-01-12T22:36:12.655Z,11.09
2023-01-12T22:38:16.017Z,11.10
2023-01-12T22:40:19.548Z,11.08
2023-01-12T22:42:44.875Z,11.08
2023-01-12T22:44:48.213Z,11.06
2023-01-12T22:46:52.098Z,11.07
2023-01-12T22:48:59.260Z,11.04
2023-01-12T22:51:02.654Z,11.06
2023-01-12T22:53:05.947Z,11.14
2023-01-12T22:55:10.069Z,11.12
2023-01-12T22:57:13.424Z,11.17
2023-01-12T22:59:16.780Z,11.10
2023-01-12T23:01:21.298Z,11.18
2023-01-12T23:03:23.829Z,11.02
2023-01-12T23:05:30.120Z,11.17
2023-01-12T23:07:33.427Z,11.19
2023-01-12T23:09:36.779Z,11.16
2023-01-12T23:11:40.243Z,11.12
2023-01-12T23:13:44.536Z,11.06
2023-01-12T23:15:50.119Z,11.02
2023-01-12T23:17:53.476Z,11.03
2023-01-12T23:19:56.834Z,11.00
2023-01-12T23:22:01.583Z,10.99
2023-01-12T23:24:05.275Z,10.95
2023-01-12T23:26:11.130Z,10.90
2023-01-12T23:28:15.415Z,10.93
2023-01-12T23:30:19.286Z,10.90
2023-01-12T23:32:22.579Z,10.88
2023-01-12T23:34:25.996Z,10.92
2023-01-12T23:36:30.870Z,10.87
2023-01-12T23:38:36.175Z,10.84
2023-01-12T23:40:39.552Z,10.84
2023-01-12T23:42:42.912Z,10.84
2023-01-12T23:44:46.372Z,10.88
2023-01-12T23:46:49.780Z,10.86
2023-01-12T23:48:54.527Z,10.87
2023-01-12T23:50:59.376Z,10.92
2023-01-12T23:53:02.830Z,10.89
2023-01-12T23:55:09.021Z,10.90
2023-01-12T23:57:12.456Z,10.92
2023-01-12T23:59:15.857Z,10.96
